sensor_id;sensor_type;location;lat;lon;timestamp;P1;durP1;ratioP1;P2;durP2;ratioP2
68886;SDS011;55925;51.764;6.402;2023-06-14T00:02:07;6.40;;;2.95;;
68886;SDS011;55925;51.764;6.402;2023-06-14T00:04:34;8.23;;;3.20;;
68886;SDS011;55925;51.764;6.402;2023-06-14T00:07:00;5.07;;;2.83;;
68886;SDS011;55925;51.764;6.402;2023-06-14T00:09:26;7.50;;;3.35;;
68886;SDS011;55925;51.764;6.402;2023-06-14T00:11:52;6.82;;;3.08;;
68886;SDS011;55925;51.764;6.402;2023-06-14T00:14:18;6.57;;;3.10;;
68886;SDS011;55925;51.764;6.402;2023-06-14T00:16:44;5.75;;;3.08;;
68886;SDS011;55925;51.764;6.402;2023-06-14T00:19:10;6.32;;;3.05;;
68886;SDS011;55925;51.764;6.402;2023-06-14T00:21:36;6.93;;;3.30;;
68886;SDS011;55925;51.764;6.402;2023-06-14T00:24:02;8.38;;;3.38;;
68886;SDS011;55925;51.764;6.402;2023-06-14T00:26:29;9.57;;;3.28;;
68886;SDS011;55925;51.764;6.402;2023-06-14T00:28:55;6.05;;;3.00;;
68886;SDS011;55925;51.764;6.402;2023-06-14T00:31:21;6.55;;;3.15;;
68886;SDS011;55925;51.764;6.402;2023-06-14T00:33:47;7.93;;;3.45;;
68886;SDS011;55925;51.764;6.402;2023-06-14T00:36:13;6.47;;;3.40;;
68886;SDS011;55925;51.764;6.402;2023-06-14T00:38:39;6.10;;;3.35;;
68886;SDS011;55925;51.764;6.402;2023-06-14T00:41:05;8.30;;;3.05;;
68886;SDS011;55925;51.764;6.402;2023-06-14T00:43:31;7.05;;;3.65;;
68886;SDS011;55925;51.764;6.402;2023-06-14T00:45:59;6.82;;;3.03;;
68886;SDS011;55925;51.764;6.402;2023-06-14T00:48:25;5.72;;;2.90;;
68886;SDS011;55925;51.764;6.402;2023-06-14T00:50:51;6.20;;;3.25;;
68886;SDS011;55925;51.764;6.402;2023-06-14T00:53:17;7.13;;;2.97;;
68886;SDS011;55925;51.764;6.402;2023-06-14T00:55:45;7.88;;;3.20;;
68886;SDS011;55925;51.764;6.402;2023-06-14T00:58:11;5.68;;;2.95;;
68886;SDS011;55925;51.764;6.402;2023-06-14T01:00:37;10.40;;;3.10;;
68886;SDS011;55925;51.764;6.402;2023-06-14T01:03:03;7.80;;;3.00;;
68886;SDS011;55925;51.764;6.402;2023-06-14T01:05:30;5.63;;;2.92;;
68886;SDS011;55925;51.764;6.402;2023-06-14T01:08:20;8.15;;;3.10;;
68886;SDS011;55925;51.764;6.402;2023-06-14T01:10:51;8.23;;;3.22;;
68886;SDS011;55925;51.764;6.402;2023-06-14T01:15:44;7.45;;;3.33;;
68886;SDS011;55925;51.764;6.402;2023-06-14T01:18:10;6.25;;;3.00;;
68886;SDS011;55925;51.764;6.402;2023-06-14T01:20:42;7.78;;;3.55;;
68886;SDS011;55925;51.764;6.402;2023-06-14T01:23:09;6.85;;;2.92;;
68886;SDS011;55925;51.764;6.402;2023-06-14T01:25:37;5.70;;;2.85;;
68886;SDS011;55925;51.764;6.402;2023-06-14T01:28:04;5.55;;;2.92;;
68886;SDS011;55925;51.764;6.402;2023-06-14T01:30:35;6.18;;;3.25;;
68886;SDS011;55925;51.764;6.402;2023-06-14T01:33:02;6.95;;;3.25;;
68886;SDS011;55925;51.764;6.402;2023-06-14T01:35:29;7.47;;;2.78;;
68886;SDS011;55925;51.764;6.402;2023-06-14T01:37:55;6.53;;;3.33;;
68886;SDS011;55925;51.764;6.402;2023-06-14T01:40:21;9.50;;;3.15;;
68886;SDS011;55925;51.764;6.402;2023-06-14T01:42:48;5.32;;;2.55;;
68886;SDS011;55925;51.764;6.402;2023-06-14T01:45:15;7.10;;;2.83;;
68886;SDS011;55925;51.764;6.402;2023-06-14T01:47:42;7.22;;;3.45;;
68886;SDS011;55925;51.764;6.402;2023-06-14T01:50:09;7.55;;;3.35;;
68886;SDS011;55925;51.764;6.402;2023-06-14T01:52:36;8.95;;;3.10;;
68886;SDS011;55925;51.764;6.402;2023-06-14T01:55:03;7.53;;;3.03;;
68886;SDS011;55925;51.764;6.402;2023-06-14T01:57:29;5.72;;;2.67;;
68886;SDS011;55925;51.764;6.402;2023-06-14T01:59:55;7.63;;;2.97;;
68886;SDS011;55925;51.764;6.402;2023-06-14T02:02:21;6.13;;;2.70;;
68886;SDS011;55925;51.764;6.402;2023-06-14T02:04:47;6.72;;;3.05;;
68886;SDS011;55925;51.764;6.402;2023-06-14T02:07:14;6.45;;;2.90;;
68886;SDS011;55925;51.764;6.402;2023-06-14T02:09:40;7.05;;;3.00;;
68886;SDS011;55925;51.764;6.402;2023-06-14T02:12:06;5.85;;;2.83;;
68886;SDS011;55925;51.764;6.402;2023-06-14T02:14:32;5.60;;;3.17;;
68886;SDS011;55925;51.764;6.402;2023-06-14T02:16:58;7.32;;;3.17;;
68886;SDS011;55925;51.764;6.402;2023-06-14T02:19:25;6.35;;;3.10;;
68886;SDS011;55925;51.764;6.402;2023-06-14T02:21:51;8.73;;;2.85;;
68886;SDS011;55925;51.764;6.402;2023-06-14T02:24:18;6.53;;;2.92;;
68886;SDS011;55925;51.764;6.402;2023-06-14T02:26:44;6.97;;;3.03;;
68886;SDS011;55925;51.764;6.402;2023-06-14T02:29:10;8.25;;;2.88;;
68886;SDS011;55925;51.764;6.402;2023-06-14T02:31:37;5.97;;;2.83;;
68886;SDS011;55925;51.764;6.402;2023-06-14T02:34:03;5.82;;;2.80;;
68886;SDS011;55925;51.764;6.402;2023-06-14T02:36:30;7.57;;;2.72;;
68886;SDS011;55925;51.764;6.402;2023-06-14T02:38:56;5.63;;;2.80;;
68886;SDS011;55925;51.764;6.402;2023-06-14T02:41:25;5.82;;;2.97;;
68886;SDS011;55925;51.764;6.402;2023-06-14T02:43:52;6.53;;;2.92;;
68886;SDS011;55925;51.764;6.402;2023-06-14T02:46:18;6.45;;;2.90;;
68886;SDS011;55925;51.764;6.402;2023-06-14T02:48:44;6.47;;;2.65;;
68886;SDS011;55925;51.764;6.402;2023-06-14T02:51:10;5.03;;;2.40;;
68886;SDS011;55925;51.764;6.402;2023-06-14T02:53:37;6.03;;;2.75;;
68886;SDS011;55925;51.764;6.402;2023-06-14T02:56:03;6.55;;;2.80;;
68886;SDS011;55925;51.764;6.402;2023-06-14T02:58:29;5.20;;;2.80;;
68886;SDS011;55925;51.764;6.402;2023-06-14T03:00:55;5.65;;;2.88;;
68886;SDS011;55925;51.764;6.402;2023-06-14T03:03:21;6.43;;;2.90;;
68886;SDS011;55925;51.764;6.402;2023-06-14T03:05:49;7.75;;;2.78;;
68886;SDS011;55925;51.764;6.402;2023-06-14T03:08:16;6.40;;;3.17;;
68886;SDS011;55925;51.764;6.402;2023-06-14T03:10:47;9.75;;;3.10;;
68886;SDS011;55925;51.764;6.402;2023-06-14T03:13:13;6.50;;;2.70;;
68886;SDS011;55925;51.764;6.402;2023-06-14T03:15:40;6.20;;;2.78;;
68886;SDS011;55925;51.764;6.402;2023-06-14T03:18:07;7.30;;;2.83;;
68886;SDS011;55925;51.764;6.402;2023-06-14T03:20:34;7.32;;;2.88;;
68886;SDS011;55925;51.764;6.402;2023-06-14T03:23:01;5.00;;;2.55;;
68886;SDS011;55925;51.764;6.402;2023-06-14T03:25:27;8.52;;;2.65;;
68886;SDS011;55925;51.764;6.402;2023-06-14T03:28:00;5.95;;;2.28;;
68886;SDS011;55925;51.764;6.402;2023-06-14T03:30:26;7.70;;;2.90;;
68886;SDS011;55925;51.764;6.402;2023-06-14T03:32:52;7.45;;;2.83;;
68886;SDS011;55925;51.764;6.402;2023-06-14T03:35:20;5.57;;;2.92;;
68886;SDS011;55925;51.764;6.402;2023-06-14T03:37:46;5.50;;;2.45;;
68886;SDS011;55925;51.764;6.402;2023-06-14T03:40:13;6.40;;;2.65;;
68886;SDS011;55925;51.764;6.402;2023-06-14T03:42:39;6.43;;;2.88;;
68886;SDS011;55925;51.764;6.402;2023-06-14T03:45:05;6.18;;;3.00;;
68886;SDS011;55925;51.764;6.402;2023-06-14T03:47:31;8.02;;;2.90;;
68886;SDS011;55925;51.764;6.402;2023-06-14T03:49:57;6.15;;;2.55;;
68886;SDS011;55925;51.764;6.402;2023-06-14T03:52:23;5.75;;;2.60;;
68886;SDS011;55925;51.764;6.402;2023-06-14T03:54:50;4.47;;;2.47;;
68886;SDS011;55925;51.764;6.402;2023-06-14T03:57:16;8.20;;;3.08;;
68886;SDS011;55925;51.764;6.402;2023-06-14T03:59:42;7.45;;;2.63;;
68886;SDS011;55925;51.764;6.402;2023-06-14T04:02:08;7.97;;;2.95;;
68886;SDS011;55925;51.764;6.402;2023-06-14T04:04:35;8.85;;;2.63;;
68886;SDS011;55925;51.764;6.402;2023-06-14T04:07:01;5.90;;;2.40;;
68886;SDS011;55925;51.764;6.402;2023-06-14T04:09:31;5.78;;;2.60;;
68886;SDS011;55925;51.764;6.402;2023-06-14T04:11:57;6.57;;;2.63;;
68886;SDS011;55925;51.764;6.402;2023-06-14T04:14:23;5.15;;;2.70;;
68886;SDS011;55925;51.764;6.402;2023-06-14T04:16:49;8.38;;;2.58;;
68886;SDS011;55925;51.764;6.402;2023-06-14T04:19:15;7.18;;;2.70;;
68886;SDS011;55925;51.764;6.402;2023-06-14T04:21:41;5.90;;;2.78;;
68886;SDS011;55925;51.764;6.402;2023-06-14T04:24:07;13.48;;;3.08;;
68886;SDS011;55925;51.764;6.402;2023-06-14T04:26:41;7.18;;;2.50;;
68886;SDS011;55925;51.764;6.402;2023-06-14T04:29:09;5.28;;;2.65;;
68886;SDS011;55925;51.764;6.402;2023-06-14T04:31:39;8.02;;;3.10;;
68886;SDS011;55925;51.764;6.402;2023-06-14T04:34:05;5.28;;;2.53;;
68886;SDS011;55925;51.764;6.402;2023-06-14T04:36:32;7.03;;;2.75;;
68886;SDS011;55925;51.764;6.402;2023-06-14T04:38:59;7.40;;;2.60;;
68886;SDS011;55925;51.764;6.402;2023-06-14T04:41:25;6.00;;;2.60;;
68886;SDS011;55925;51.764;6.402;2023-06-14T04:43:59;6.50;;;2.83;;
68886;SDS011;55925;51.764;6.402;2023-06-14T04:46:29;8.55;;;2.90;;
68886;SDS011;55925;51.764;6.402;2023-06-14T04:48:57;7.70;;;2.72;;
68886;SDS011;55925;51.764;6.402;2023-06-14T04:51:27;7.82;;;2.78;;
68886;SDS011;55925;51.764;6.402;2023-06-14T04:53:58;5.45;;;2.65;;
68886;SDS011;55925;51.764;6.402;2023-06-14T04:56:26;5.78;;;2.53;;
68886;SDS011;55925;51.764;6.402;2023-06-14T04:58:52;5.85;;;2.53;;
68886;SDS011;55925;51.764;6.402;2023-06-14T05:01:18;6.82;;;2.78;;
68886;SDS011;55925;51.764;6.402;2023-06-14T05:03:46;8.80;;;3.05;;
68886;SDS011;55925;51.764;6.402;2023-06-14T05:06:14;7.28;;;2.78;;
68886;SDS011;55925;51.764;6.402;2023-06-14T05:08:43;5.60;;;2.60;;
68886;SDS011;55925;51.764;6.402;2023-06-14T05:11:10;6.68;;;2.78;;
68886;SDS011;55925;51.764;6.402;2023-06-14T05:13:36;5.43;;;2.55;;
68886;SDS011;55925;51.764;6.402;2023-06-14T05:16:02;6.38;;;2.75;;
68886;SDS011;55925;51.764;6.402;2023-06-14T05:18:28;5.35;;;2.90;;
68886;SDS011;55925;51.764;6.402;2023-06-14T05:20:54;7.30;;;2.92;;
68886;SDS011;55925;51.764;6.402;2023-06-14T05:23:20;6.90;;;3.25;;
68886;SDS011;55925;51.764;6.402;2023-06-14T05:25:46;5.43;;;2.50;;
68886;SDS011;55925;51.764;6.402;2023-06-14T05:28:12;6.72;;;2.75;;
68886;SDS011;55925;51.764;6.402;2023-06-14T05:30:38;6.32;;;2.45;;
68886;SDS011;55925;51.764;6.402;2023-06-14T05:33:05;8.02;;;2.63;;
68886;SDS011;55925;51.764;6.402;2023-06-14T05:35:31;6.80;;;2.53;;
68886;SDS011;55925;51.764;6.402;2023-06-14T05:37:57;6.78;;;2.50;;
68886;SDS011;55925;51.764;6.402;2023-06-14T05:40:23;9.75;;;2.80;;
68886;SDS011;55925;51.764;6.402;2023-06-14T05:42:49;6.60;;;2.70;;
68886;SDS011;55925;51.764;6.402;2023-06-14T05:45:15;6.13;;;2.65;;
68886;SDS011;55925;51.764;6.402;2023-06-14T05:47:41;5.75;;;2.53;;
68886;SDS011;55925;51.764;6.402;2023-06-14T05:50:07;9.60;;;2.88;;
68886;SDS011;55925;51.764;6.402;2023-06-14T05:52:34;8.60;;;2.90;;
68886;SDS011;55925;51.764;6.402;2023-06-14T05:55:01;6.03;;;2.47;;
68886;SDS011;55925;51.764;6.402;2023-06-14T05:57:28;7.70;;;3.08;;
68886;SDS011;55925;51.764;6.402;2023-06-14T05:59:54;6.53;;;2.83;;
68886;SDS011;55925;51.764;6.402;2023-06-14T06:02:20;10.07;;;2.78;;
68886;SDS011;55925;51.764;6.402;2023-06-14T06:04:46;8.18;;;2.50;;
68886;SDS011;55925;51.764;6.402;2023-06-14T06:07:12;6.80;;;2.63;;
68886;SDS011;55925;51.764;6.402;2023-06-14T06:09:38;5.95;;;2.67;;
68886;SDS011;55925;51.764;6.402;2023-06-14T06:12:05;6.45;;;2.42;;
68886;SDS011;55925;51.764;6.402;2023-06-14T06:14:32;6.53;;;2.10;;
68886;SDS011;55925;51.764;6.402;2023-06-14T06:16:58;7.60;;;2.38;;
68886;SDS011;55925;51.764;6.402;2023-06-14T06:19:24;5.50;;;2.50;;
68886;SDS011;55925;51.764;6.402;2023-06-14T06:21:50;5.47;;;2.72;;
68886;SDS011;55925;51.764;6.402;2023-06-14T06:24:16;6.55;;;2.50;;
68886;SDS011;55925;51.764;6.402;2023-06-14T06:26:42;5.65;;;2.50;;
68886;SDS011;55925;51.764;6.402;2023-06-14T06:29:08;5.03;;;2.30;;
68886;SDS011;55925;51.764;6.402;2023-06-14T06:31:35;8.13;;;2.50;;
68886;SDS011;55925;51.764;6.402;2023-06-14T06:34:01;6.93;;;1.92;;
68886;SDS011;55925;51.764;6.402;2023-06-14T06:36:27;5.35;;;2.58;;
68886;SDS011;55925;51.764;6.402;2023-06-14T06:38:53;5.93;;;2.03;;
68886;SDS011;55925;51.764;6.402;2023-06-14T06:41:19;11.55;;;2.33;;
68886;SDS011;55925;51.764;6.402;2023-06-14T06:43:45;6.47;;;2.03;;
68886;SDS011;55925;51.764;6.402;2023-06-14T06:46:11;4.63;;;1.90;;
68886;SDS011;55925;51.764;6.402;2023-06-14T06:48:38;4.30;;;2.00;;
68886;SDS011;55925;51.764;6.402;2023-06-14T06:51:04;5.35;;;2.30;;
68886;SDS011;55925;51.764;6.402;2023-06-14T06:53:30;5.10;;;2.05;;
68886;SDS011;55925;51.764;6.402;2023-06-14T06:55:56;8.82;;;2.20;;
68886;SDS011;55925;51.764;6.402;2023-06-14T06:58:22;7.40;;;1.98;;
68886;SDS011;55925;51.764;6.402;2023-06-14T07:00:48;4.57;;;1.85;;
68886;SDS011;55925;51.764;6.402;2023-06-14T07:03:14;4.28;;;1.77;;
68886;SDS011;55925;51.764;6.402;2023-06-14T07:05:41;3.67;;;1.73;;
68886;SDS011;55925;51.764;6.402;2023-06-14T07:08:07;3.92;;;1.70;;
68886;SDS011;55925;51.764;6.402;2023-06-14T07:10:32;5.45;;;1.90;;
68886;SDS011;55925;51.764;6.402;2023-06-14T07:12:59;6.53;;;2.13;;
68886;SDS011;55925;51.764;6.402;2023-06-14T07:15:25;5.25;;;1.85;;
68886;SDS011;55925;51.764;6.402;2023-06-14T07:17:51;5.15;;;1.70;;
68886;SDS011;55925;51.764;6.402;2023-06-14T07:20:18;3.45;;;1.48;;
68886;SDS011;55925;51.764;6.402;2023-06-14T07:22:44;5.50;;;1.80;;
68886;SDS011;55925;51.764;6.402;2023-06-14T07:25:10;5.65;;;2.05;;
68886;SDS011;55925;51.764;6.402;2023-06-14T07:27:41;4.07;;;1.45;;
68886;SDS011;55925;51.764;6.402;2023-06-14T07:30:08;4.13;;;1.60;;
68886;SDS011;55925;51.764;6.402;2023-06-14T07:32:34;5.45;;;1.83;;
68886;SDS011;55925;51.764;6.402;2023-06-14T07:35:00;4.90;;;2.03;;
68886;SDS011;55925;51.764;6.402;2023-06-14T07:37:26;5.15;;;2.00;;
68886;SDS011;55925;51.764;6.402;2023-06-14T07:39:52;4.50;;;1.95;;
68886;SDS011;55925;51.764;6.402;2023-06-14T07:42:18;4.22;;;1.90;;
68886;SDS011;55925;51.764;6.402;2023-06-14T07:44:44;5.82;;;2.05;;
68886;SDS011;55925;51.764;6.402;2023-06-14T07:47:10;5.40;;;1.90;;
68886;SDS011;55925;51.764;6.402;2023-06-14T07:49:36;5.60;;;1.92;;
68886;SDS011;55925;51.764;6.402;2023-06-14T07:52:02;4.70;;;2.28;;
68886;SDS011;55925;51.764;6.402;2023-06-14T07:54:30;8.13;;;2.10;;
68886;SDS011;55925;51.764;6.402;2023-06-14T07:56:57;4.53;;;1.92;;
68886;SDS011;55925;51.764;6.402;2023-06-14T07:59:25;5.03;;;1.95;;
68886;SDS011;55925;51.764;6.402;2023-06-14T08:01:51;3.97;;;1.98;;
68886;SDS011;55925;51.764;6.402;2023-06-14T08:04:17;7.25;;;2.22;;
68886;SDS011;55925;51.764;6.402;2023-06-14T08:06:43;4.97;;;2.10;;
68886;SDS011;55925;51.764;6.402;2023-06-14T08:09:10;5.05;;;2.03;;
68886;SDS011;55925;51.764;6.402;2023-06-14T08:11:36;5.13;;;1.85;;
68886;SDS011;55925;51.764;6.402;2023-06-14T08:14:02;4.35;;;1.90;;
68886;SDS011;55925;51.764;6.402;2023-06-14T08:16:28;5.13;;;2.25;;
68886;SDS011;55925;51.764;6.402;2023-06-14T08:18:55;4.90;;;2.03;;
68886;SDS011;55925;51.764;6.402;2023-06-14T08:21:21;5.18;;;1.90;;
68886;SDS011;55925;51.764;6.402;2023-06-14T08:23:47;5.50;;;2.03;;
68886;SDS011;55925;51.764;6.402;2023-06-14T08:26:13;5.20;;;1.85;;
68886;SDS011;55925;51.764;6.402;2023-06-14T08:28:39;4.88;;;1.77;;
68886;SDS011;55925;51.764;6.402;2023-06-14T08:31:05;5.82;;;1.98;;
68886;SDS011;55925;51.764;6.402;2023-06-14T08:33:31;5.20;;;2.05;;
68886;SDS011;55925;51.764;6.402;2023-06-14T08:36:00;5.75;;;2.00;;
68886;SDS011;55925;51.764;6.402;2023-06-14T08:38:26;6.57;;;1.90;;
68886;SDS011;55925;51.764;6.402;2023-06-14T08:40:52;5.13;;;1.95;;
68886;SDS011;55925;51.764;6.402;2023-06-14T08:43:22;6.85;;;1.95;;
68886;SDS011;55925;51.764;6.402;2023-06-14T08:45:48;4.50;;;1.80;;
68886;SDS011;55925;51.764;6.402;2023-06-14T08:48:18;6.35;;;1.83;;
68886;SDS011;55925;51.764;6.402;2023-06-14T08:50:46;6.32;;;2.17;;
68886;SDS011;55925;51.764;6.402;2023-06-14T08:53:14;7.00;;;2.08;;
68886;SDS011;55925;51.764;6.402;2023-06-14T08:55:44;5.18;;;1.70;;
68886;SDS011;55925;51.764;6.402;2023-06-14T08:58:12;4.30;;;1.90;;
68886;SDS011;55925;51.764;6.402;2023-06-14T09:00:39;6.00;;;1.90;;
68886;SDS011;55925;51.764;6.402;2023-06-14T09:03:06;5.05;;;1.65;;
68886;SDS011;55925;51.764;6.402;2023-06-14T09:05:38;5.97;;;1.70;;
68886;SDS011;55925;51.764;6.402;2023-06-14T09:08:04;4.60;;;1.80;;
68886;SDS011;55925;51.764;6.402;2023-06-14T09:10:31;4.90;;;2.22;;
68886;SDS011;55925;51.764;6.402;2023-06-14T09:13:02;5.18;;;1.70;;
68886;SDS011;55925;51.764;6.402;2023-06-14T09:15:29;4.30;;;1.70;;
68886;SDS011;55925;51.764;6.402;2023-06-14T09:17:56;5.57;;;1.80;;
68886;SDS011;55925;51.764;6.402;2023-06-14T09:20:23;4.85;;;1.40;;
68886;SDS011;55925;51.764;6.402;2023-06-14T09:22:50;5.68;;;1.67;;
68886;SDS011;55925;51.764;6.402;2023-06-14T09:25:16;3.28;;;1.48;;
68886;SDS011;55925;51.764;6.402;2023-06-14T09:27:43;3.97;;;1.33;;
68886;SDS011;55925;51.764;6.402;2023-06-14T09:30:09;3.95;;;1.40;;
68886;SDS011;55925;51.764;6.402;2023-06-14T09:32:39;4.93;;;1.70;;
68886;SDS011;55925;51.764;6.402;2023-06-14T09:35:08;6.03;;;1.70;;
68886;SDS011;55925;51.764;6.402;2023-06-14T09:37:34;6.05;;;1.73;;
68886;SDS011;55925;51.764;6.402;2023-06-14T09:40:02;6.70;;;1.50;;
68886;SDS011;55925;51.764;6.402;2023-06-14T09:42:29;5.05;;;1.60;;
68886;SDS011;55925;51.764;6.402;2023-06-14T09:44:55;8.50;;;1.77;;
68886;SDS011;55925;51.764;6.402;2023-06-14T09:47:22;3.70;;;1.58;;
68886;SDS011;55925;51.764;6.402;2023-06-14T09:49:48;6.72;;;1.40;;
68886;SDS011;55925;51.764;6.402;2023-06-14T09:52:15;3.63;;;1.40;;
68886;SDS011;55925;51.764;6.402;2023-06-14T09:54:42;5.03;;;1.73;;
68886;SDS011;55925;51.764;6.402;2023-06-14T09:57:10;5.43;;;1.80;;
68886;SDS011;55925;51.764;6.402;2023-06-14T09:59:36;4.80;;;1.70;;
68886;SDS011;55925;51.764;6.402;2023-06-14T10:02:07;4.57;;;1.50;;
68886;SDS011;55925;51.764;6.402;2023-06-14T10:04:35;4.32;;;1.50;;
68886;SDS011;55925;51.764;6.402;2023-06-14T10:07:01;4.82;;;1.35;;
68886;SDS011;55925;51.764;6.402;2023-06-14T10:09:28;4.85;;;1.70;;
68886;SDS011;55925;51.764;6.402;2023-06-14T10:11:55;3.72;;;1.60;;
68886;SDS011;55925;51.764;6.402;2023-06-14T10:14:21;3.45;;;1.33;;
68886;SDS011;55925;51.764;6.402;2023-06-14T10:16:52;5.00;;;1.58;;
68886;SDS011;55925;51.764;6.402;2023-06-14T10:19:27;3.85;;;1.63;;
68886;SDS011;55925;51.764;6.402;2023-06-14T10:24:30;4.65;;;1.60;;
68886;SDS011;55925;51.764;6.402;2023-06-14T10:26:57;4.80;;;1.73;;
68886;SDS011;55925;51.764;6.402;2023-06-14T10:29:24;6.47;;;1.80;;
68886;SDS011;55925;51.764;6.402;2023-06-14T10:31:56;3.05;;;1.40;;
68886;SDS011;55925;51.764;6.402;2023-06-14T10:34:26;4.72;;;1.52;;
68886;SDS011;55925;51.764;6.402;2023-06-14T10:37:12;6.63;;;1.60;;
68886;SDS011;55925;51.764;6.402;2023-06-14T10:39:39;5.25;;;1.60;;
68886;SDS011;55925;51.764;6.402;2023-06-14T10:42:12;5.18;;;1.40;;
68886;SDS011;55925;51.764;6.402;2023-06-14T10:47:20;3.78;;;1.50;;
68886;SDS011;55925;51.764;6.402;2023-06-14T10:50:04;6.07;;;1.92;;
68886;SDS011;55925;51.764;6.402;2023-06-14T10:52:32;6.93;;;1.70;;
68886;SDS011;55925;51.764;6.402;2023-06-14T10:57:29;4.15;;;1.40;;
68886;SDS011;55925;51.764;6.402;2023-06-14T11:00:02;4.65;;;1.67;;
68886;SDS011;55925;51.764;6.402;2023-06-14T11:05:11;4.07;;;1.50;;
68886;SDS011;55925;51.764;6.402;2023-06-14T11:12:34;4.35;;;1.60;;
68886;SDS011;55925;51.764;6.402;2023-06-14T11:15:01;5.20;;;1.67;;
68886;SDS011;55925;51.764;6.402;2023-06-14T11:17:27;4.82;;;1.38;;
68886;SDS011;55925;51.764;6.402;2023-06-14T11:20:10;4.45;;;1.63;;
68886;SDS011;55925;51.764;6.402;2023-06-14T11:22:41;4.03;;;1.33;;
68886;SDS011;55925;51.764;6.402;2023-06-14T11:25:13;5.13;;;1.75;;
68886;SDS011;55925;51.764;6.402;2023-06-14T11:27:42;3.85;;;1.33;;
68886;SDS011;55925;51.764;6.402;2023-06-14T11:30:08;4.28;;;1.60;;
68886;SDS011;55925;51.764;6.402;2023-06-14T11:32:35;8.07;;;1.58;;
68886;SDS011;55925;51.764;6.402;2023-06-14T11:35:05;6.25;;;1.58;;
68886;SDS011;55925;51.764;6.402;2023-06-14T11:37:31;4.68;;;1.40;;
68886;SDS011;55925;51.764;6.402;2023-06-14T11:40:00;5.93;;;1.33;;
68886;SDS011;55925;51.764;6.402;2023-06-14T11:42:28;4.78;;;1.33;;
68886;SDS011;55925;51.764;6.402;2023-06-14T11:44:55;4.28;;;1.38;;
68886;SDS011;55925;51.764;6.402;2023-06-14T11:47:22;7.43;;;1.35;;
68886;SDS011;55925;51.764;6.402;2023-06-14T11:49:48;3.45;;;1.27;;
68886;SDS011;55925;51.764;6.402;2023-06-14T11:52:14;3.50;;;1.17;;
68886;SDS011;55925;51.764;6.402;2023-06-14T11:54:40;2.90;;;1.00;;
68886;SDS011;55925;51.764;6.402;2023-06-14T11:57:07;2.85;;;1.20;;
68886;SDS011;55925;51.764;6.402;2023-06-14T11:59:43;4.25;;;1.25;;
68886;SDS011;55925;51.764;6.402;2023-06-14T12:02:09;3.25;;;1.20;;
68886;SDS011;55925;51.764;6.402;2023-06-14T12:04:35;3.15;;;1.10;;
68886;SDS011;55925;51.764;6.402;2023-06-14T12:07:08;2.75;;;1.10;;
68886;SDS011;55925;51.764;6.402;2023-06-14T12:09:36;4.78;;;1.50;;
68886;SDS011;55925;51.764;6.402;2023-06-14T12:12:02;3.97;;;1.23;;
68886;SDS011;55925;51.764;6.402;2023-06-14T12:14:29;4.30;;;1.20;;
68886;SDS011;55925;51.764;6.402;2023-06-14T12:17:03;5.65;;;1.50;;
68886;SDS011;55925;51.764;6.402;2023-06-14T12:19:29;3.58;;;1.23;;
68886;SDS011;55925;51.764;6.402;2023-06-14T12:21:57;5.47;;;1.40;;
68886;SDS011;55925;51.764;6.402;2023-06-14T12:24:27;3.00;;;1.10;;
68886;SDS011;55925;51.764;6.402;2023-06-14T12:26:54;4.70;;;1.20;;
68886;SDS011;55925;51.764;6.402;2023-06-14T12:29:20;3.05;;;1.30;;
68886;SDS011;55925;51.764;6.402;2023-06-14T12:31:46;5.53;;;1.23;;
68886;SDS011;55925;51.764;6.402;2023-06-14T12:34:13;4.28;;;1.30;;
68886;SDS011;55925;51.764;6.402;2023-06-14T12:36:38;5.95;;;1.48;;
68886;SDS011;55925;51.764;6.402;2023-06-14T12:39:09;4.97;;;1.30;;
68886;SDS011;55925;51.764;6.402;2023-06-14T12:41:35;3.88;;;1.40;;
68886;SDS011;55925;51.764;6.402;2023-06-14T12:44:02;2.70;;;1.30;;
68886;SDS011;55925;51.764;6.402;2023-06-14T12:46:31;4.15;;;1.25;;
68886;SDS011;55925;51.764;6.402;2023-06-14T12:48:57;3.58;;;1.30;;
68886;SDS011;55925;51.764;6.402;2023-06-14T12:51:23;4.00;;;1.20;;
68886;SDS011;55925;51.764;6.402;2023-06-14T12:53:50;4.38;;;1.40;;
68886;SDS011;55925;51.764;6.402;2023-06-14T12:56:16;2.85;;;1.20;;
68886;SDS011;55925;51.764;6.402;2023-06-14T12:58:42;4.03;;;1.42;;
68886;SDS011;55925;51.764;6.402;2023-06-14T13:01:08;6.00;;;1.35;;
68886;SDS011;55925;51.764;6.402;2023-06-14T13:03:34;4.88;;;1.10;;
68886;SDS011;55925;51.764;6.402;2023-06-14T13:06:01;5.00;;;1.30;;
68886;SDS011;55925;51.764;6.402;2023-06-14T13:08:29;4.07;;;1.30;;
68886;SDS011;55925;51.764;6.402;2023-06-14T13:10:55;3.55;;;1.20;;
68886;SDS011;55925;51.764;6.402;2023-06-14T13:13:22;4.38;;;1.55;;
68886;SDS011;55925;51.764;6.402;2023-06-14T13:15:48;3.90;;;1.40;;
68886;SDS011;55925;51.764;6.402;2023-06-14T13:18:15;2.85;;;1.10;;
68886;SDS011;55925;51.764;6.402;2023-06-14T13:20:41;4.07;;;1.50;;
68886;SDS011;55925;51.764;6.402;2023-06-14T13:23:07;4.93;;;1.45;;
68886;SDS011;55925;51.764;6.402;2023-06-14T13:25:34;6.90;;;1.40;;
68886;SDS011;55925;51.764;6.402;2023-06-14T13:28:00;4.93;;;1.30;;
68886;SDS011;55925;51.764;6.402;2023-06-14T13:30:26;3.25;;;1.27;;
68886;SDS011;55925;51.764;6.402;2023-06-14T13:32:52;3.70;;;1.30;;
68886;SDS011;55925;51.764;6.402;2023-06-14T13:35:18;5.13;;;1.55;;
68886;SDS011;55925;51.764;6.402;2023-06-14T13:37:44;4.32;;;1.35;;
68886;SDS011;55925;51.764;6.402;2023-06-14T13:40:11;5.28;;;1.35;;
68886;SDS011;55925;51.764;6.402;2023-06-14T13:42:37;3.50;;;1.60;;
68886;SDS011;55925;51.764;6.402;2023-06-14T13:45:03;4.55;;;1.20;;
68886;SDS011;55925;51.764;6.402;2023-06-14T13:47:29;4.38;;;1.42;;
68886;SDS011;55925;51.764;6.402;2023-06-14T13:49:56;3.47;;;1.40;;
68886;SDS011;55925;51.764;6.402;2023-06-14T13:52:22;3.92;;;1.30;;
68886;SDS011;55925;51.764;6.402;2023-06-14T13:54:48;4.80;;;1.38;;
68886;SDS011;55925;51.764;6.402;2023-06-14T13:57:14;3.67;;;1.60;;
68886;SDS011;55925;51.764;6.402;2023-06-14T13:59:40;5.25;;;1.40;;
68886;SDS011;55925;51.764;6.402;2023-06-14T14:02:09;3.83;;;1.40;;
68886;SDS011;55925;51.764;6.402;2023-06-14T14:04:35;4.80;;;1.70;;
68886;SDS011;55925;51.764;6.402;2023-06-14T14:07:02;3.88;;;1.50;;
68886;SDS011;55925;51.764;6.402;2023-06-14T14:09:28;5.18;;;1.35;;
68886;SDS011;55925;51.764;6.402;2023-06-14T14:11:54;6.38;;;1.50;;
68886;SDS011;55925;51.764;6.402;2023-06-14T14:14:20;5.85;;;1.75;;
68886;SDS011;55925;51.764;6.402;2023-06-14T14:16:48;2.97;;;1.30;;
68886;SDS011;55925;51.764;6.402;2023-06-14T14:19:16;4.57;;;1.52;;
68886;SDS011;55925;51.764;6.402;2023-06-14T14:21:43;4.18;;;1.40;;
68886;SDS011;55925;51.764;6.402;2023-06-14T14:24:09;4.20;;;1.50;;
68886;SDS011;55925;51.764;6.402;2023-06-14T14:26:36;4.03;;;1.67;;
68886;SDS011;55925;51.764;6.402;2023-06-14T14:29:02;5.15;;;1.50;;
68886;SDS011;55925;51.764;6.402;2023-06-14T14:31:28;4.22;;;1.75;;
68886;SDS011;55925;51.764;6.402;2023-06-14T14:33:54;3.70;;;1.60;;
68886;SDS011;55925;51.764;6.402;2023-06-14T14:36:20;4.03;;;1.45;;
68886;SDS011;55925;51.764;6.402;2023-06-14T14:38:46;3.88;;;1.60;;
68886;SDS011;55925;51.764;6.402;2023-06-14T14:41:12;4.60;;;1.52;;
68886;SDS011;55925;51.764;6.402;2023-06-14T14:43:38;3.97;;;1.60;;
68886;SDS011;55925;51.764;6.402;2023-06-14T14:46:04;4.13;;;1.60;;
68886;SDS011;55925;51.764;6.402;2023-06-14T14:48:30;3.95;;;1.50;;
68886;SDS011;55925;51.764;6.402;2023-06-14T14:50:56;4.03;;;1.60;;
68886;SDS011;55925;51.764;6.402;2023-06-14T14:53:23;4.38;;;1.65;;
68886;SDS011;55925;51.764;6.402;2023-06-14T14:55:49;4.38;;;1.63;;
68886;SDS011;55925;51.764;6.402;2023-06-14T14:58:15;3.67;;;1.55;;
68886;SDS011;55925;51.764;6.402;2023-06-14T15:00:43;4.55;;;1.73;;
68886;SDS011;55925;51.764;6.402;2023-06-14T15:03:09;3.85;;;1.90;;
68886;SDS011;55925;51.764;6.402;2023-06-14T15:05:35;5.43;;;1.70;;